sensor_id;sensor_type;location;lat;lon;timestamp;P1;durP1;ratioP1;P2;durP2;ratioP2
67554;SDS011;54385;53.516;49.456;2022-07-23T00:01:33;0.68;;;0.68;;
67554;SDS011;54385;53.516;49.456;2022-07-23T00:04:00;0.82;;;0.82;;
67554;SDS011;54385;53.516;49.456;2022-07-23T00:06:26;0.82;;;0.82;;
67554;SDS011;54385;53.516;49.456;2022-07-23T00:08:53;0.85;;;0.85;;
67554;SDS011;54385;53.516;49.456;2022-07-23T00:11:19;0.88;;;0.88;;
67554;SDS011;54385;53.516;49.456;2022-07-23T00:13:47;0.93;;;0.93;;
67554;SDS011;54385;53.516;49.456;2022-07-23T00:16:14;0.93;;;0.93;;
67554;SDS011;54385;53.516;49.456;2022-07-23T00:18:40;0.90;;;0.90;;
67554;SDS011;54385;53.516;49.456;2022-07-23T00:21:07;0.85;;;0.85;;
67554;SDS011;54385;53.516;49.456;2022-07-23T00:23:33;0.85;;;0.85;;
67554;SDS011;54385;53.516;49.456;2022-07-23T00:26:00;0.85;;;0.85;;
67554;SDS011;54385;53.516;49.456;2022-07-23T00:28:26;0.85;;;0.85;;
67554;SDS011;54385;53.516;49.456;2022-07-23T00:30:53;0.85;;;0.85;;
67554;SDS011;54385;53.516;49.456;2022-07-23T00:33:20;0.85;;;0.85;;
67554;SDS011;54385;53.516;49.456;2022-07-23T00:35:46;0.80;;;0.80;;
67554;SDS011;54385;53.516;49.456;2022-07-23T00:38:12;0.82;;;0.82;;
67554;SDS011;54385;53.516;49.456;2022-07-23T00:40:39;0.93;;;0.93;;
67554;SDS011;54385;53.516;49.456;2022-07-23T00:43:06;0.85;;;0.85;;
67554;SDS011;54385;53.516;49.456;2022-07-23T00:45:33;0.82;;;0.82;;
67554;SDS011;54385;53.516;49.456;2022-07-23T00:47:59;0.80;;;0.80;;
67554;SDS011;54385;53.516;49.456;2022-07-23T00:50:26;0.82;;;0.82;;
67554;SDS011;54385;53.516;49.456;2022-07-23T00:52:53;0.85;;;0.85;;
67554;SDS011;54385;53.516;49.456;2022-07-23T00:55:20;0.75;;;0.75;;
67554;SDS011;54385;53.516;49.456;2022-07-23T00:57:46;0.80;;;0.80;;
67554;SDS011;54385;53.516;49.456;2022-07-23T01:00:14;0.82;;;0.82;;
67554;SDS011;54385;53.516;49.456;2022-07-23T01:02:40;0.82;;;0.82;;
67554;SDS011;54385;53.516;49.456;2022-07-23T01:05:07;0.88;;;0.88;;
67554;SDS011;54385;53.516;49.456;2022-07-23T01:07:35;0.88;;;0.88;;
67554;SDS011;54385;53.516;49.456;2022-07-23T01:10:02;0.85;;;0.85;;
67554;SDS011;54385;53.516;49.456;2022-07-23T01:12:29;0.85;;;0.85;;
67554;SDS011;54385;53.516;49.456;2022-07-23T01:14:56;0.82;;;0.82;;
67554;SDS011;54385;53.516;49.456;2022-07-23T01:17:24;0.85;;;0.85;;
67554;SDS011;54385;53.516;49.456;2022-07-23T01:19:51;0.85;;;0.85;;
67554;SDS011;54385;53.516;49.456;2022-07-23T01:22:18;0.82;;;0.82;;
67554;SDS011;54385;53.516;49.456;2022-07-23T01:24:45;0.85;;;0.85;;
67554;SDS011;54385;53.516;49.456;2022-07-23T01:27:12;0.85;;;0.85;;
67554;SDS011;54385;53.516;49.456;2022-07-23T01:29:39;0.88;;;0.88;;
67554;SDS011;54385;53.516;49.456;2022-07-23T01:32:05;0.85;;;0.85;;
67554;SDS011;54385;53.516;49.456;2022-07-23T01:34:32;0.82;;;0.82;;
67554;SDS011;54385;53.516;49.456;2022-07-23T01:36:58;0.88;;;0.88;;
67554;SDS011;54385;53.516;49.456;2022-07-23T01:39:28;2.53;;;2.43;;
67554;SDS011;54385;53.516;49.456;2022-07-23T01:41:54;0.85;;;0.85;;
67554;SDS011;54385;53.516;49.456;2022-07-23T01:44:21;0.88;;;0.88;;
67554;SDS011;54385;53.516;49.456;2022-07-23T01:46:47;0.82;;;0.82;;
67554;SDS011;54385;53.516;49.456;2022-07-23T01:49:13;0.85;;;0.85;;
67554;SDS011;54385;53.516;49.456;2022-07-23T01:51:40;0.93;;;0.93;;
67554;SDS011;54385;53.516;49.456;2022-07-23T01:54:25;0.88;;;0.88;;
67554;SDS011;54385;53.516;49.456;2022-07-23T01:56:56;0.95;;;0.95;;
67554;SDS011;54385;53.516;49.456;2022-07-23T01:59:23;0.95;;;0.95;;
67554;SDS011;54385;53.516;49.456;2022-07-23T02:01:51;0.98;;;0.98;;
67554;SDS011;54385;53.516;49.456;2022-07-23T02:04:18;0.88;;;0.88;;
67554;SDS011;54385;53.516;49.456;2022-07-23T02:06:46;0.82;;;0.82;;
67554;SDS011;54385;53.516;49.456;2022-07-23T02:09:13;0.88;;;0.88;;
67554;SDS011;54385;53.516;49.456;2022-07-23T02:11:39;0.95;;;0.95;;
67554;SDS011;54385;53.516;49.456;2022-07-23T02:14:06;0.93;;;0.93;;
67554;SDS011;54385;53.516;49.456;2022-07-23T02:16:33;0.93;;;0.93;;
67554;SDS011;54385;53.516;49.456;2022-07-23T02:18:59;0.95;;;0.95;;
67554;SDS011;54385;53.516;49.456;2022-07-23T02:21:26;0.88;;;0.88;;
67554;SDS011;54385;53.516;49.456;2022-07-23T02:23:52;0.88;;;0.88;;
67554;SDS011;54385;53.516;49.456;2022-07-23T02:26:19;0.95;;;0.95;;
67554;SDS011;54385;53.516;49.456;2022-07-23T02:28:45;0.95;;;0.95;;
67554;SDS011;54385;53.516;49.456;2022-07-23T02:31:11;0.93;;;0.93;;
67554;SDS011;54385;53.516;49.456;2022-07-23T02:33:38;0.93;;;0.93;;
67554;SDS011;54385;53.516;49.456;2022-07-23T02:36:04;0.95;;;0.95;;
67554;SDS011;54385;53.516;49.456;2022-07-23T02:38:30;1.02;;;1.02;;
67554;SDS011;54385;53.516;49.456;2022-07-23T02:40:57;0.90;;;0.90;;
67554;SDS011;54385;53.516;49.456;2022-07-23T02:43:23;0.93;;;0.93;;
67554;SDS011;54385;53.516;49.456;2022-07-23T02:45:50;1.00;;;1.00;;
67554;SDS011;54385;53.516;49.456;2022-07-23T02:48:16;1.05;;;1.05;;
67554;SDS011;54385;53.516;49.456;2022-07-23T02:50:43;1.05;;;1.05;;
67554;SDS011;54385;53.516;49.456;2022-07-23T02:53:09;1.05;;;1.05;;
67554;SDS011;54385;53.516;49.456;2022-07-23T02:55:35;1.02;;;1.02;;
67554;SDS011;54385;53.516;49.456;2022-07-23T02:58:02;1.05;;;1.05;;
67554;SDS011;54385;53.516;49.456;2022-07-23T03:00:28;0.98;;;0.98;;
67554;SDS011;54385;53.516;49.456;2022-07-23T03:02:55;1.02;;;1.02;;
67554;SDS011;54385;53.516;49.456;2022-07-23T03:05:21;0.95;;;0.95;;
67554;SDS011;54385;53.516;49.456;2022-07-23T03:07:47;1.05;;;1.05;;
67554;SDS011;54385;53.516;49.456;2022-07-23T03:10:14;1.02;;;1.02;;
67554;SDS011;54385;53.516;49.456;2022-07-23T03:12:40;1.05;;;1.05;;
67554;SDS011;54385;53.516;49.456;2022-07-23T03:15:07;1.02;;;1.02;;
67554;SDS011;54385;53.516;49.456;2022-07-23T03:17:34;1.00;;;1.00;;
67554;SDS011;54385;53.516;49.456;2022-07-23T03:20:00;1.02;;;1.02;;
67554;SDS011;54385;53.516;49.456;2022-07-23T03:22:27;1.00;;;1.00;;
67554;SDS011;54385;53.516;49.456;2022-07-23T03:24:53;0.98;;;0.98;;
67554;SDS011;54385;53.516;49.456;2022-07-23T03:27:20;0.98;;;0.98;;
67554;SDS011;54385;53.516;49.456;2022-07-23T03:29:55;1.05;;;1.05;;
67554;SDS011;54385;53.516;49.456;2022-07-23T03:32:24;1.02;;;1.02;;
67554;SDS011;54385;53.516;49.456;2022-07-23T03:34:51;1.00;;;1.00;;
67554;SDS011;54385;53.516;49.456;2022-07-23T03:37:18;1.02;;;1.02;;
67554;SDS011;54385;53.516;49.456;2022-07-23T03:39:45;0.95;;;0.95;;
67554;SDS011;54385;53.516;49.456;2022-07-23T03:42:12;0.98;;;0.98;;
67554;SDS011;54385;53.516;49.456;2022-07-23T03:44:38;0.95;;;0.95;;
67554;SDS011;54385;53.516;49.456;2022-07-23T03:47:05;0.98;;;0.98;;
67554;SDS011;54385;53.516;49.456;2022-07-23T03:49:32;1.00;;;1.00;;
67554;SDS011;54385;53.516;49.456;2022-07-23T03:51:59;1.00;;;1.00;;
67554;SDS011;54385;53.516;49.456;2022-07-23T03:54:26;1.05;;;1.05;;
67554;SDS011;54385;53.516;49.456;2022-07-23T03:56:52;0.98;;;0.98;;
67554;SDS011;54385;53.516;49.456;2022-07-23T03:59:19;0.98;;;0.98;;
67554;SDS011;54385;53.516;49.456;2022-07-23T04:01:45;0.95;;;0.95;;
67554;SDS011;54385;53.516;49.456;2022-07-23T04:04:11;0.98;;;0.98;;
67554;SDS011;54385;53.516;49.456;2022-07-23T04:06:38;1.05;;;1.05;;
67554;SDS011;54385;53.516;49.456;2022-07-23T04:09:04;0.95;;;0.95;;
67554;SDS011;54385;53.516;49.456;2022-07-23T04:11:31;1.02;;;1.02;;
67554;SDS011;54385;53.516;49.456;2022-07-23T04:13:57;0.95;;;0.95;;
67554;SDS011;54385;53.516;49.456;2022-07-23T04:16:23;1.10;;;1.10;;
67554;SDS011;54385;53.516;49.456;2022-07-23T04:18:50;1.02;;;1.02;;
67554;SDS011;54385;53.516;49.456;2022-07-23T04:21:16;1.02;;;1.02;;
67554;SDS011;54385;53.516;49.456;2022-07-23T04:23:43;0.95;;;0.95;;
67554;SDS011;54385;53.516;49.456;2022-07-23T04:26:15;1.00;;;1.00;;
67554;SDS011;54385;53.516;49.456;2022-07-23T04:28:46;0.93;;;0.93;;
67554;SDS011;54385;53.516;49.456;2022-07-23T04:31:20;1.05;;;1.05;;
67554;SDS011;54385;53.516;49.456;2022-07-23T04:34:13;1.02;;;1.02;;
67554;SDS011;54385;53.516;49.456;2022-07-23T04:36:40;1.05;;;1.05;;
67554;SDS011;54385;53.516;49.456;2022-07-23T04:39:06;1.10;;;1.10;;
67554;SDS011;54385;53.516;49.456;2022-07-23T04:41:33;1.13;;;1.13;;
67554;SDS011;54385;53.516;49.456;2022-07-23T04:44:00;1.15;;;1.15;;
67554;SDS011;54385;53.516;49.456;2022-07-23T04:46:27;1.13;;;1.13;;
67554;SDS011;54385;53.516;49.456;2022-07-23T04:48:54;1.15;;;1.15;;
67554;SDS011;54385;53.516;49.456;2022-07-23T04:51:20;1.17;;;1.17;;
67554;SDS011;54385;53.516;49.456;2022-07-23T04:53:47;1.13;;;1.13;;
67554;SDS011;54385;53.516;49.456;2022-07-23T04:56:14;1.23;;;1.23;;
67554;SDS011;54385;53.516;49.456;2022-07-23T04:58:40;1.17;;;1.17;;
67554;SDS011;54385;53.516;49.456;2022-07-23T05:01:07;1.25;;;1.25;;
67554;SDS011;54385;53.516;49.456;2022-07-23T05:03:34;1.23;;;1.23;;
67554;SDS011;54385;53.516;49.456;2022-07-23T05:06:00;1.35;;;1.35;;
67554;SDS011;54385;53.516;49.456;2022-07-23T05:08:28;1.27;;;1.27;;
67554;SDS011;54385;53.516;49.456;2022-07-23T05:10:55;1.33;;;1.33;;
67554;SDS011;54385;53.516;49.456;2022-07-23T05:13:21;1.35;;;1.35;;
67554;SDS011;54385;53.516;49.456;2022-07-23T05:15:47;1.33;;;1.33;;
67554;SDS011;54385;53.516;49.456;2022-07-23T05:18:14;1.30;;;1.30;;
67554;SDS011;54385;53.516;49.456;2022-07-23T05:20:40;1.25;;;1.25;;
67554;SDS011;54385;53.516;49.456;2022-07-23T05:23:07;1.38;;;1.38;;
67554;SDS011;54385;53.516;49.456;2022-07-23T05:25:33;1.33;;;1.33;;
67554;SDS011;54385;53.516;49.456;2022-07-23T05:28:02;1.35;;;1.35;;
67554;SDS011;54385;53.516;49.456;2022-07-23T05:30:28;1.50;;;1.50;;
67554;SDS011;54385;53.516;49.456;2022-07-23T05:32:55;1.42;;;1.42;;
67554;SDS011;54385;53.516;49.456;2022-07-23T05:35:21;1.42;;;1.42;;
67554;SDS011;54385;53.516;49.456;2022-07-23T05:37:48;1.67;;;1.67;;
67554;SDS011;54385;53.516;49.456;2022-07-23T05:40:14;1.67;;;1.67;;
67554;SDS011;54385;53.516;49.456;2022-07-23T05:42:41;1.75;;;1.75;;
67554;SDS011;54385;53.516;49.456;2022-07-23T05:45:08;1.67;;;1.67;;
67554;SDS011;54385;53.516;49.456;2022-07-23T05:47:45;1.95;;;1.85;;
67554;SDS011;54385;53.516;49.456;2022-07-23T05:50:13;1.98;;;1.88;;
67554;SDS011;54385;53.516;49.456;2022-07-23T05:52:41;1.70;;;1.70;;
67554;SDS011;54385;53.516;49.456;2022-07-23T05:55:09;1.85;;;1.80;;
67554;SDS011;54385;53.516;49.456;2022-07-23T05:57:36;1.77;;;1.75;;
67554;SDS011;54385;53.516;49.456;2022-07-23T06:00:03;1.92;;;1.85;;
67554;SDS011;54385;53.516;49.456;2022-07-23T06:02:30;2.00;;;1.90;;
67554;SDS011;54385;53.516;49.456;2022-07-23T06:04:57;2.05;;;1.95;;
67554;SDS011;54385;53.516;49.456;2022-07-23T06:07:23;2.08;;;1.98;;
67554;SDS011;54385;53.516;49.456;2022-07-23T06:09:50;2.10;;;2.00;;
67554;SDS011;54385;53.516;49.456;2022-07-23T06:12:16;2.15;;;2.05;;
67554;SDS011;54385;53.516;49.456;2022-07-23T06:14:43;2.05;;;1.95;;
67554;SDS011;54385;53.516;49.456;2022-07-23T06:17:10;2.25;;;2.15;;
67554;SDS011;54385;53.516;49.456;2022-07-23T06:19:37;2.50;;;2.40;;
67554;SDS011;54385;53.516;49.456;2022-07-23T06:22:03;2.00;;;1.90;;
67554;SDS011;54385;53.516;49.456;2022-07-23T06:24:29;2.30;;;2.20;;
67554;SDS011;54385;53.516;49.456;2022-07-23T06:26:56;2.17;;;2.08;;
67554;SDS011;54385;53.516;49.456;2022-07-23T06:29:22;2.15;;;2.05;;
67554;SDS011;54385;53.516;49.456;2022-07-23T06:31:48;2.30;;;2.20;;
67554;SDS011;54385;53.516;49.456;2022-07-23T06:34:15;2.30;;;2.20;;
67554;SDS011;54385;53.516;49.456;2022-07-23T06:36:41;2.35;;;2.25;;
67554;SDS011;54385;53.516;49.456;2022-07-23T06:39:08;2.45;;;2.35;;
67554;SDS011;54385;53.516;49.456;2022-07-23T06:41:35;2.50;;;2.40;;
67554;SDS011;54385;53.516;49.456;2022-07-23T06:44:01;2.50;;;2.40;;
67554;SDS011;54385;53.516;49.456;2022-07-23T06:46:28;2.40;;;2.30;;
67554;SDS011;54385;53.516;49.456;2022-07-23T06:48:54;2.50;;;2.40;;
67554;SDS011;54385;53.516;49.456;2022-07-23T06:51:21;2.50;;;2.40;;
67554;SDS011;54385;53.516;49.456;2022-07-23T06:53:48;2.60;;;2.50;;
67554;SDS011;54385;53.516;49.456;2022-07-23T06:56:14;2.65;;;2.55;;
67554;SDS011;54385;53.516;49.456;2022-07-23T06:58:40;2.53;;;2.42;;
67554;SDS011;54385;53.516;49.456;2022-07-23T07:01:07;2.80;;;2.70;;
67554;SDS011;54385;53.516;49.456;2022-07-23T07:03:33;2.78;;;2.67;;
67554;SDS011;54385;53.516;49.456;2022-07-23T07:06:00;2.88;;;2.78;;
67554;SDS011;54385;53.516;49.456;2022-07-23T07:08:27;3.00;;;2.90;;
67554;SDS011;54385;53.516;49.456;2022-07-23T07:10:54;2.72;;;2.63;;
67554;SDS011;54385;53.516;49.456;2022-07-23T07:13:20;2.90;;;2.80;;
67554;SDS011;54385;53.516;49.456;2022-07-23T07:15:47;3.05;;;2.95;;
67554;SDS011;54385;53.516;49.456;2022-07-23T07:18:13;2.88;;;2.78;;
67554;SDS011;54385;53.516;49.456;2022-07-23T07:20:39;3.10;;;3.00;;
67554;SDS011;54385;53.516;49.456;2022-07-23T07:23:06;3.08;;;2.97;;
67554;SDS011;54385;53.516;49.456;2022-07-23T07:25:32;3.20;;;3.10;;
67554;SDS011;54385;53.516;49.456;2022-07-23T07:27:59;3.03;;;2.92;;
67554;SDS011;54385;53.516;49.456;2022-07-23T07:30:25;3.42;;;3.33;;
67554;SDS011;54385;53.516;49.456;2022-07-23T07:32:52;3.40;;;3.30;;
67554;SDS011;54385;53.516;49.456;2022-07-23T07:35:19;3.08;;;2.97;;
67554;SDS011;54385;53.516;49.456;2022-07-23T07:37:45;3.10;;;3.00;;
67554;SDS011;54385;53.516;49.456;2022-07-23T07:40:11;3.35;;;3.25;;
67554;SDS011;54385;53.516;49.456;2022-07-23T07:42:46;3.22;;;3.13;;
67554;SDS011;54385;53.516;49.456;2022-07-23T07:45:13;3.30;;;3.20;;
67554;SDS011;54385;53.516;49.456;2022-07-23T07:47:41;3.50;;;3.40;;
67554;SDS011;54385;53.516;49.456;2022-07-23T07:50:08;3.50;;;3.40;;
67554;SDS011;54385;53.516;49.456;2022-07-23T07:52:35;3.47;;;3.38;;
67554;SDS011;54385;53.516;49.456;2022-07-23T07:55:03;3.50;;;3.40;;
67554;SDS011;54385;53.516;49.456;2022-07-23T07:57:30;3.50;;;3.40;;
67554;SDS011;54385;53.516;49.456;2022-07-23T07:59:57;3.30;;;3.20;;
67554;SDS011;54385;53.516;49.456;2022-07-23T08:02:23;3.65;;;3.55;;
67554;SDS011;54385;53.516;49.456;2022-07-23T08:04:50;3.38;;;3.28;;
67554;SDS011;54385;53.516;49.456;2022-07-23T08:07:17;3.60;;;3.50;;
67554;SDS011;54385;53.516;49.456;2022-07-23T08:09:43;3.55;;;3.45;;
67554;SDS011;54385;53.516;49.456;2022-07-23T08:12:10;3.33;;;3.22;;
67554;SDS011;54385;53.516;49.456;2022-07-23T08:14:36;3.47;;;3.38;;
67554;SDS011;54385;53.516;49.456;2022-07-23T08:17:03;3.33;;;3.22;;
67554;SDS011;54385;53.516;49.456;2022-07-23T08:19:29;3.15;;;3.05;;
67554;SDS011;54385;53.516;49.456;2022-07-23T08:21:56;3.28;;;3.17;;
67554;SDS011;54385;53.516;49.456;2022-07-23T08:24:22;3.10;;;3.00;;
67554;SDS011;54385;53.516;49.456;2022-07-23T08:26:49;3.13;;;3.03;;
67554;SDS011;54385;53.516;49.456;2022-07-23T08:29:15;3.30;;;3.20;;
67554;SDS011;54385;53.516;49.456;2022-07-23T08:31:42;3.47;;;3.38;;
67554;SDS011;54385;53.516;49.456;2022-07-23T08:34:08;3.53;;;3.42;;
67554;SDS011;54385;53.516;49.456;2022-07-23T08:36:37;5.22;;;5.03;;
67554;SDS011;54385;53.516;49.456;2022-07-23T08:39:03;3.50;;;3.40;;
67554;SDS011;54385;53.516;49.456;2022-07-23T08:41:30;3.40;;;3.30;;
67554;SDS011;54385;53.516;49.456;2022-07-23T08:43:56;3.72;;;3.63;;
67554;SDS011;54385;53.516;49.456;2022-07-23T08:46:27;3.78;;;3.67;;
67554;SDS011;54385;53.516;49.456;2022-07-23T08:48:56;5.68;;;5.47;;
67554;SDS011;54385;53.516;49.456;2022-07-23T08:51:25;3.88;;;3.78;;
67554;SDS011;54385;53.516;49.456;2022-07-23T08:53:53;5.65;;;5.45;;
67554;SDS011;54385;53.516;49.456;2022-07-23T08:56:23;4.10;;;3.90;;
67554;SDS011;54385;53.516;49.456;2022-07-23T08:58:53;5.63;;;5.43;;
67554;SDS011;54385;53.516;49.456;2022-07-23T09:01:23;3.90;;;3.80;;
67554;SDS011;54385;53.516;49.456;2022-07-23T09:03:55;4.43;;;4.22;;
67554;SDS011;54385;53.516;49.456;2022-07-23T09:06:22;4.70;;;4.50;;
67554;SDS011;54385;53.516;49.456;2022-07-23T09:08:50;4.40;;;4.20;;
67554;SDS011;54385;53.516;49.456;2022-07-23T09:11:18;4.22;;;4.03;;
67554;SDS011;54385;53.516;49.456;2022-07-23T09:13:50;4.10;;;3.92;;
67554;SDS011;54385;53.516;49.456;2022-07-23T09:16:26;5.72;;;5.47;;
67554;SDS011;54385;53.516;49.456;2022-07-23T09:18:58;3.95;;;3.83;;
67554;SDS011;54385;53.516;49.456;2022-07-23T09:23:57;3.55;;;3.45;;
67554;SDS011;54385;53.516;49.456;2022-07-23T09:26:25;3.08;;;2.97;;
67554;SDS011;54385;53.516;49.456;2022-07-23T09:29:07;2.83;;;2.72;;
67554;SDS011;54385;53.516;49.456;2022-07-23T09:31:45;2.70;;;2.60;;
67554;SDS011;54385;53.516;49.456;2022-07-23T09:34:18;2.83;;;2.72;;
67554;SDS011;54385;53.516;49.456;2022-07-23T09:36:47;2.65;;;2.55;;
67554;SDS011;54385;53.516;49.456;2022-07-23T09:39:22;2.58;;;2.47;;
67554;SDS011;54385;53.516;49.456;2022-07-23T09:41:53;2.58;;;2.47;;
67554;SDS011;54385;53.516;49.456;2022-07-23T09:44:20;2.65;;;2.55;;
67554;SDS011;54385;53.516;49.456;2022-07-23T09:46:50;2.67;;;2.58;;
67554;SDS011;54385;53.516;49.456;2022-07-23T09:49:23;2.65;;;2.55;;
67554;SDS011;54385;53.516;49.456;2022-07-23T09:54:28;2.42;;;2.33;;
67554;SDS011;54385;53.516;49.456;2022-07-23T09:56:59;2.45;;;2.35;;
67554;SDS011;54385;53.516;49.456;2022-07-23T09:59:38;2.28;;;2.17;;
67554;SDS011;54385;53.516;49.456;2022-07-23T10:02:06;2.13;;;2.03;;
67554;SDS011;54385;53.516;49.456;2022-07-23T10:04:34;1.73;;;1.73;;
67554;SDS011;54385;53.516;49.456;2022-07-23T10:07:02;1.70;;;1.70;;
67554;SDS011;54385;53.516;49.456;2022-07-23T10:09:31;2.78;;;2.67;;
67554;SDS011;54385;53.516;49.456;2022-07-23T10:12:03;3.40;;;3.30;;
67554;SDS011;54385;53.516;49.456;2022-07-23T10:14:41;1.63;;;1.63;;
67554;SDS011;54385;53.516;49.456;2022-07-23T10:17:12;1.55;;;1.55;;
67554;SDS011;54385;53.516;49.456;2022-07-23T10:19:42;1.55;;;1.55;;
67554;SDS011;54385;53.516;49.456;2022-07-23T10:22:14;1.45;;;1.45;;
67554;SDS011;54385;53.516;49.456;2022-07-23T10:25:11;1.33;;;1.33;;
67554;SDS011;54385;53.516;49.456;2022-07-23T10:28:10;1.45;;;1.45;;
67554;SDS011;54385;53.516;49.456;2022-07-23T10:31:25;1.45;;;1.45;;
67554;SDS011;54385;53.516;49.456;2022-07-23T10:40:17;1.50;;;1.50;;
67554;SDS011;54385;53.516;49.456;2022-07-23T10:42:49;1.42;;;1.42;;
67554;SDS011;54385;53.516;49.456;2022-07-23T10:48:16;1.45;;;1.45;;
67554;SDS011;54385;53.516;49.456;2022-07-23T10:51:05;2.75;;;2.65;;
67554;SDS011;54385;53.516;49.456;2022-07-23T11:02:45;1.13;;;1.13;;
67554;SDS011;54385;53.516;49.456;2022-07-23T11:05:13;2.78;;;2.67;;
67554;SDS011;54385;53.516;49.456;2022-07-23T11:10:35;1.15;;;1.15;;
67554;SDS011;54385;53.516;49.456;2022-07-23T11:13:27;1.13;;;1.13;;
67554;SDS011;54385;53.516;49.456;2022-07-23T11:16:08;1.20;;;1.20;;
67554;SDS011;54385;53.516;49.456;2022-07-23T11:24:15;1.20;;;1.20;;
67554;SDS011;54385;53.516;49.456;2022-07-23T11:30:10;2.97;;;2.88;;
67554;SDS011;54385;53.516;49.456;2022-07-23T11:35:42;1.27;;;1.27;;
67554;SDS011;54385;53.516;49.456;2022-07-23T11:38:27;1.33;;;1.33;;
67554;SDS011;54385;53.516;49.456;2022-07-23T11:41:01;1.50;;;1.50;;
67554;SDS011;54385;53.516;49.456;2022-07-23T11:43:31;1.48;;;1.48;;
67554;SDS011;54385;53.516;49.456;2022-07-23T11:46:09;1.48;;;1.48;;
67554;SDS011;54385;53.516;49.456;2022-07-23T11:48:45;1.40;;;1.40;;
67554;SDS011;54385;53.516;49.456;2022-07-23T11:51:33;1.52;;;1.52;;
67554;SDS011;54385;53.516;49.456;2022-07-23T11:54:06;1.60;;;1.60;;
67554;SDS011;54385;53.516;49.456;2022-07-23T11:56:59;1.58;;;1.58;;
67554;SDS011;54385;53.516;49.456;2022-07-23T11:59:37;1.70;;;1.70;;
67554;SDS011;54385;53.516;49.456;2022-07-23T12:02:09;3.58;;;3.45;;
67554;SDS011;54385;53.516;49.456;2022-07-23T12:04:46;2.05;;;1.95;;
67554;SDS011;54385;53.516;49.456;2022-07-23T12:07:33;2.20;;;2.10;;
67554;SDS011;54385;53.516;49.456;2022-07-23T12:10:17;2.28;;;2.17;;
67554;SDS011;54385;53.516;49.456;2022-07-23T12:13:14;2.85;;;2.75;;
67554;SDS011;54385;53.516;49.456;2022-07-23T12:15:47;3.03;;;2.92;;
67554;SDS011;54385;53.516;49.456;2022-07-23T12:18:19;3.40;;;3.30;;
67554;SDS011;54385;53.516;49.456;2022-07-23T12:20:52;4.50;;;4.30;;
67554;SDS011;54385;53.516;49.456;2022-07-23T12:23:29;4.75;;;4.55;;
67554;SDS011;54385;53.516;49.456;2022-07-23T12:26:11;6.40;;;6.10;;
67554;SDS011;54385;53.516;49.456;2022-07-23T12:28:59;7.93;;;7.57;;
67554;SDS011;54385;53.516;49.456;2022-07-23T12:31:29;7.32;;;7.03;;
67554;SDS011;54385;53.516;49.456;2022-07-23T12:33:59;8.70;;;8.30;;
67554;SDS011;54385;53.516;49.456;2022-07-23T12:36:36;11.13;;;10.63;;
67554;SDS011;54385;53.516;49.456;2022-07-23T12:39:20;11.40;;;10.90;;
67554;SDS011;54385;53.516;49.456;2022-07-23T12:41:56;12.55;;;11.95;;
67554;SDS011;54385;53.516;49.456;2022-07-23T12:44:23;13.48;;;12.88;;
67554;SDS011;54385;53.516;49.456;2022-07-23T12:46:52;14.10;;;13.40;;
67554;SDS011;54385;53.516;49.456;2022-07-23T12:49:25;14.45;;;13.75;;
67554;SDS011;54385;53.516;49.456;2022-07-23T12:51:55;15.00;;;14.30;;
67554;SDS011;54385;53.516;49.456;2022-07-23T12:54:27;16.25;;;15.45;;
67554;SDS011;54385;53.516;49.456;2022-07-23T12:56:54;17.80;;;16.98;;
67554;SDS011;54385;53.516;49.456;2022-07-23T12:59:21;19.50;;;18.60;;
67554;SDS011;54385;53.516;49.456;2022-07-23T13:02:13;20.90;;;19.90;;
67554;SDS011;54385;53.516;49.456;2022-07-23T13:04:52;22.17;;;21.08;;
67554;SDS011;54385;53.516;49.456;2022-07-23T13:07:30;23.35;;;22.25;;
67554;SDS011;54385;53.516;49.456;2022-07-23T13:09:56;22.70;;;21.60;;
67554;SDS011;54385;53.516;49.456;2022-07-23T13:12:23;23.17;;;22.08;;
67554;SDS011;54385;53.516;49.456;2022-07-23T13:14:49;24.35;;;23.15;;
67554;SDS011;54385;53.516;49.456;2022-07-23T13:17:16;26.48;;;25.17;;
67554;SDS011;54385;53.516;49.456;2022-07-23T13:19:42;25.77;;;24.52;;
67554;SDS011;54385;53.516;49.456;2022-07-23T13:22:11;27.10;;;25.80;;
67554;SDS011;54385;53.516;49.456;2022-07-23T13:24:38;26.17;;;24.88;;
67554;SDS011;54385;53.516;49.456;2022-07-23T13:27:05;26.92;;;25.63;;
67554;SDS011;54385;53.516;49.456;2022-07-23T13:29:37;26.70;;;25.40;;
67554;SDS011;54385;53.516;49.456;2022-07-23T13:32:17;26.45;;;25.15;;
67554;SDS011;54385;53.516;49.456;2022-07-23T13:35:01;26.60;;;25.30;;
67554;SDS011;54385;53.516;49.456;2022-07-23T13:37:32;24.77;;;23.58;;
67554;SDS011;54385;53.516;49.456;2022-07-23T13:40:06;24.70;;;23.50;;
67554;SDS011;54385;53.516;49.456;2022-07-23T13:42:40;25.35;;;24.15;;
67554;SDS011;54385;53.516;49.456;2022-07-23T13:45:21;24.13;;;22.92;;
67554;SDS011;54385;53.516;49.456;2022-07-23T13:47:48;27.02;;;25.73;;
67554;SDS011;54385;53.516;49.456;2022-07-23T13:50:15;23.10;;;22.00;;
67554;SDS011;54385;53.516;49.456;2022-07-23T13:52:42;23.60;;;22.50;;
67554;SDS011;54385;53.516;49.456;2022-07-23T13:55:09;23.73;;;22.63;;
67554;SDS011;54385;53.516;49.456;2022-07-23T13:57:36;23.65;;;22.55;;
67554;SDS011;54385;53.516;49.456;2022-07-23T14:00:03;23.60;;;22.50;;
67554;SDS011;54385;53.516;49.456;2022-07-23T14:02:33;22.58;;;21.48;;
67554;SDS011;54385;53.516;49.456;2022-07-23T14:05:00;23.60;;;22.50;;
67554;SDS011;54385;53.516;49.456;2022-07-23T14:07:27;22.52;;;21.42;;
67554;SDS011;54385;53.516;49.456;2022-07-23T14:09:54;19.25;;;18.35;;
67554;SDS011;54385;53.516;49.456;2022-07-23T14:12:27;17.02;;;16.23;;
67554;SDS011;54385;53.516;49.456;2022-07-23T14:14:53;15.55;;;14.85;;
67554;SDS011;54385;53.516;49.456;2022-07-23T14:17:27;14.95;;;14.25;;
67554;SDS011;54385;53.516;49.456;2022-07-23T14:19:59;13.00;;;12.40;;
67554;SDS011;54385;53.516;49.456;2022-07-23T14:22:35;12.75;;;12.15;;
67554;SDS011;54385;53.516;49.456;2022-07-23T14:25:27;11.50;;;11.00;;
67554;SDS011;54385;53.516;49.456;2022-07-23T14:28:07;9.48;;;9.07;;
67554;SDS011;54385;53.516;49.456;2022-07-23T14:30:34;7.57;;;7.28;;
67554;SDS011;54385;53.516;49.456;2022-07-23T14:33:12;9.32;;;8.93;;
67554;SDS011;54385;53.516;49.456;2022-07-23T14:35:42;7.22;;;6.93;;
67554;SDS011;54385;53.516;49.456;2022-07-23T14:38:08;6.78;;;6.47;;
67554;SDS011;54385;53.516;49.456;2022-07-23T14:40:36;5.70;;;5.50;;
67554;SDS011;54385;53.516;49.456;2022-07-23T14:43:02;6.07;;;5.80;;
67554;SDS011;54385;53.516;49.456;2022-07-23T14:45:38;5.55;;;5.35;;
67554;SDS011;54385;53.516;49.456;2022-07-23T14:48:05;4.72;;;4.53;;
67554;SDS011;54385;53.516;49.456;2022-07-23T14:50:32;4.50;;;4.30;;
67554;SDS011;54385;53.516;49.456;2022-07-23T14:53:02;4.57;;;4.38;;
67554;SDS011;54385;53.516;49.456;2022-07-23T14:55:30;4.55;;;4.35;;
67554;SDS011;54385;53.516;49.456;2022-07-23T14:58:01;5.22;;;5.03;;
67554;SDS011;54385;53.516;49.456;2022-07-23T15:00:38;4.07;;;3.90;;
67554;SDS011;54385;53.516;49.456;2022-07-23T15:03:05;3.95;;;3.83;;
67554;SDS011;54385;53.516;49.456;2022-07-23T15:05:32;3.58;;;3.47;;
67554;SDS011;54385;53.516;49.456;2022-07-23T15:07:58;3.72;;;3.63;;
67554;SDS011;54385;53.516;49.456;2022-07-23T15:10:25;3.58;;;3.47;;
67554;SDS011;54385;53.516;49.456;2022-07-23T15:12:55;3.60;;;3.50;;
67554;SDS011;54385;53.516;49.456;2022-07-23T15:15:22;3.33;;;3.22;;
67554;SDS011;54385;53.516;49.456;2022-07-23T15:17:48;3.38;;;3.28;;
67554;SDS011;54385;53.516;49.456;2022-07-23T15:20:15;3.17;;;3.08;;
67554;SDS011;54385;53.516;49.456;2022-07-23T15:22:42;3.30;;;3.20;;